Time;durP1;ratioP1;P1;durP2;ratioP2;P2;SDS_P1;SDS_P2;PMS_P1;PMS_P2;Temp;Humidity;BMP_temperature;BMP_pressure;BME280_temperature;BME280_humidity;BME280_pressure;Samples;Min_cycle;Max_cycle;Signal;HPM_P1;HPM_P2
2023/07/31 00:02:24;;;;;;;6.30;4.60;;;;;;;15.98;98.45;97486.95;107279;1273;22678;-78
2023/07/31 00:04:52;;;;;;;5.80;4.30;;;;;;;15.96;98.11;97486.74;107345;1273;24452;-80
2023/07/31 00:07:20;;;;;;;6.20;4.10;;;;;;;15.95;97.91;97492.98;107107;1273;24227;-78
2023/07/31 00:09:48;;;;;;;6.30;3.90;;;;;;;15.94;98.06;97489.92;107133;1273;22579;-79
2023/07/31 00:12:16;;;;;;;6.60;3.80;;;;;;;15.94;98.14;97489.31;107510;1273;24316;-79
2023/07/31 00:14:44;;;;;;;6.50;4.70;;;;;;;15.89;98.23;97486.38;107447;1273;25463;-79
2023/07/31 00:17:12;;;;;;;6.90;4.10;;;;;;;15.85;98.36;97485.98;107240;1273;23244;-79
2023/07/31 00:19:40;;;;;;;8.30;4.50;;;;;;;15.80;98.07;97486.98;107263;1273;24368;-79
2023/07/31 00:22:08;;;;;;;8.00;4.00;;;;;;;15.76;97.92;97494.52;107345;1273;22674;-79
2023/07/31 00:24:36;;;;;;;8.60;4.30;;;;;;;15.70;97.77;97494.35;107399;1273;25268;-79
2023/07/31 00:27:04;;;;;;;5.80;4.30;;;;;;;15.69;98.05;97492.77;107171;1273;178757;-79
2023/07/31 00:29:32;;;;;;;6.30;4.20;;;;;;;15.69;97.96;97500.05;107151;1273;22627;-79
2023/07/31 00:32:00;;;;;;;7.90;4.90;;;;;;;15.63;97.81;97508.23;107246;1273;22577;-79
2023/07/31 00:34:28;;;;;;;6.70;4.50;;;;;;;15.57;98.06;97503.70;107238;1273;22536;-79
2023/07/31 00:36:56;;;;;;;9.50;5.10;;;;;;;15.50;98.22;97505.56;107178;1273;24447;-80
2023/07/31 00:39:24;;;;;;;9.60;5.30;;;;;;;15.48;98.37;97509.10;107347;1273;24909;-80
2023/07/31 00:41:52;;;;;;;6.70;5.00;;;;;;;15.50;98.75;97510.23;107358;1273;22658;-79
2023/07/31 00:44:20;;;;;;;7.30;4.60;;;;;;;15.52;98.89;97512.94;107287;1273;22537;-79
2023/07/31 00:46:49;;;;;;;6.00;4.50;;;;;;;15.54;99.23;97509.59;107154;1273;24382;-79
2023/07/31 00:49:17;;;;;;;7.10;4.70;;;;;;;15.57;99.13;97509.06;107316;1273;24356;-79
2023/07/31 00:51:45;;;;;;;9.40;4.70;;;;;;;15.58;98.87;97506.60;107311;1273;22587;-79
2023/07/31 00:54:13;;;;;;;7.40;4.70;;;;;;;15.54;99.00;97510.52;107300;1273;23386;-79
2023/07/31 00:56:44;;;;;;;8.40;5.50;;;;;;;15.50;99.83;97504.04;107303;1273;22782;-79
2023/07/31 00:59:12;;;;;;;7.20;4.60;;;;;;;15.46;100.00;97501.04;107328;1273;25394;-78
2023/07/31 01:01:40;;;;;;;7.80;4.50;;;;;;;15.45;100.00;97497.22;107378;1273;22637;-78
2023/07/31 01:04:08;;;;;;;6.50;4.30;;;;;;;15.46;100.00;97500.72;106902;1273;25465;-78
2023/07/31 01:06:45;;;;;;;5.20;4.50;;;;;;;15.43;100.00;97501.05;106889;1273;22982;-78
2023/07/31 01:09:21;;;;;;;6.40;4.60;;;;;;;15.38;100.00;97499.10;107006;1273;25352;-78
2023/07/31 01:12:03;;;;;;;7.40;4.40;;;;;;;15.38;100.00;97500.09;107020;1273;24344;-78
2023/07/31 01:14:31;;;;;;;6.60;4.90;;;;;;;15.30;100.00;97504.96;106993;1273;24242;-78
2023/07/31 01:16:59;;;;;;;5.10;4.10;;;;;;;15.21;100.00;97509.09;107017;1273;22621;-78
2023/07/31 01:19:27;;;;;;;6.90;4.80;;;;;;;15.11;100.00;97509.70;106850;1258;24206;-78
2023/07/31 01:22:10;;;;;;;5.90;5.00;;;;;;;15.04;100.00;97509.14;107149;1273;24401;-78
2023/07/31 01:24:53;;;;;;;16.00;5.60;;;;;;;14.98;100.00;97509.48;107009;1273;24045;-77
2023/07/31 01:27:39;;;;;;;7.20;5.00;;;;;;;14.95;100.00;97515.98;106995;1256;24208;-78
2023/07/31 01:30:18;;;;;;;7.30;5.50;;;;;;;14.93;100.00;97519.48;106871;1273;24287;-78
2023/07/31 01:32:48;;;;;;;7.00;5.20;;;;;;;14.94;100.00;97517.20;107097;1273;25295;-78
2023/07/31 01:35:17;;;;;;;8.00;5.30;;;;;;;14.95;100.00;97515.83;107099;1273;22597;-78
2023/07/31 01:37:45;;;;;;;7.20;5.70;;;;;;;14.95;100.00;97515.08;107316;1273;22514;-78
2023/07/31 01:40:13;;;;;;;7.80;5.30;;;;;;;14.97;100.00;97513.91;107299;1273;23058;-78
2023/07/31 01:42:42;;;;;;;6.80;5.40;;;;;;;15.03;100.00;97515.98;107011;1273;25279;-78
2023/07/31 01:45:11;;;;;;;8.80;5.50;;;;;;;15.06;100.00;97520.01;107043;1273;25386;-78
2023/07/31 01:47:39;;;;;;;7.10;5.70;;;;;;;15.10;100.00;97521.52;107255;1273;22536;-78
2023/07/31 01:50:07;;;;;;;8.20;5.70;;;;;;;15.13;100.00;97522.16;106960;1273;25435;-78
2023/07/31 01:52:37;;;;;;;8.30;5.70;;;;;;;15.12;100.00;97520.73;107144;1273;22777;-78
2023/07/31 01:55:05;;;;;;;7.90;5.60;;;;;;;15.13;100.00;97527.13;107080;1273;22646;-78
2023/07/31 01:57:33;;;;;;;9.10;5.50;;;;;;;15.12;100.00;97530.28;107114;1273;22660;-78
2023/07/31 02:00:01;;;;;;;7.30;5.20;;;;;;;15.11;100.00;97534.58;106918;1273;22534;-78
2023/07/31 02:02:38;;;;;;;7.00;5.20;;;;;;;15.12;100.00;97532.90;107219;1273;22624;-78
2023/07/31 02:05:06;;;;;;;8.40;5.60;;;;;;;15.15;100.00;97538.05;107254;1273;22536;-78
2023/07/31 02:07:34;;;;;;;6.30;5.50;;;;;;;15.15;100.00;97533.71;107288;1273;24417;-80
2023/07/31 02:10:03;;;;;;;6.90;5.50;;;;;;;15.15;100.00;97542.00;107217;1273;24228;-79
2023/07/31 02:12:31;;;;;;;6.10;5.40;;;;;;;15.12;100.00;97544.86;107211;1273;24349;-79
2023/07/31 02:15:00;;;;;;;8.60;5.40;;;;;;;15.11;100.00;97545.35;107269;1273;25382;-79
2023/07/31 02:17:28;;;;;;;9.20;5.40;;;;;;;15.12;100.00;97549.66;107150;1273;22641;-78
2023/07/31 02:19:56;;;;;;;8.00;5.50;;;;;;;15.14;100.00;97553.75;107285;1273;22631;-78
2023/07/31 02:22:25;;;;;;;7.70;5.30;;;;;;;15.18;100.00;97561.34;107170;1273;22525;-78
2023/07/31 02:24:53;;;;;;;7.10;5.50;;;;;;;15.21;100.00;97560.80;107242;1273;22807;-79
2023/07/31 02:27:27;;;;;;;7.20;5.70;;;;;;;15.21;100.00;97563.76;107194;1273;22733;-78
2023/07/31 02:29:55;;;;;;;6.90;5.20;;;;;;;15.21;100.00;97561.59;107229;1273;22577;-79
2023/07/31 02:32:23;;;;;;;8.70;5.60;;;;;;;15.23;100.00;97569.33;107218;1273;25446;-79
2023/07/31 02:34:51;;;;;;;8.00;5.40;;;;;;;15.21;100.00;97568.89;107218;1273;22655;-78
2023/07/31 02:37:19;;;;;;;8.00;5.20;;;;;;;15.20;100.00;97573.09;106925;1273;23010;-78
2023/07/31 02:39:47;;;;;;;10.80;5.60;;;;;;;15.17;100.00;97572.93;106929;1273;22529;-78
2023/07/31 02:42:15;;;;;;;5.10;4.50;;;;;;;15.16;100.00;97576.16;106953;1273;22601;-78
2023/07/31 02:44:43;;;;;;;9.40;5.10;;;;;;;15.17;100.00;97569.04;106926;1273;24391;-79
2023/07/31 02:47:11;;;;;;;10.00;5.20;;;;;;;15.16;100.00;97569.85;107272;1273;25320;-79
2023/07/31 02:49:39;;;;;;;7.30;4.80;;;;;;;15.15;100.00;97567.27;107239;1273;27736;-78
2023/07/31 02:52:07;;;;;;;6.40;4.50;;;;;;;15.13;100.00;97568.55;107233;1273;22525;-78
2023/07/31 02:54:35;;;;;;;5.70;4.70;;;;;;;15.12;100.00;97569.33;107277;1273;25188;-78
2023/07/31 02:57:03;;;;;;;6.30;4.30;;;;;;;15.13;100.00;97568.20;106919;1273;24419;-79
2023/07/31 02:59:31;;;;;;;6.10;4.80;;;;;;;15.12;100.00;97569.88;107260;1273;25293;-79
2023/07/31 03:01:59;;;;;;;6.30;4.40;;;;;;;15.12;100.00;97567.32;107258;1273;22548;-79
2023/07/31 03:04:27;;;;;;;8.50;4.30;;;;;;;15.13;100.00;97567.52;107221;1273;24361;-79
2023/07/31 03:06:56;;;;;;;8.40;4.50;;;;;;;15.16;100.00;97573.11;107247;1273;22593;-79
2023/07/31 03:09:24;;;;;;;6.10;4.20;;;;;;;15.18;100.00;97572.29;107236;1273;22671;-79
2023/07/31 03:11:52;;;;;;;6.30;4.50;;;;;;;15.20;100.00;97574.48;107337;1273;22938;-79
2023/07/31 03:14:20;;;;;;;5.40;4.00;;;;;;;15.20;100.00;97570.69;107239;1273;25523;-80
2023/07/31 03:16:48;;;;;;;5.90;4.60;;;;;;;15.22;100.00;97575.88;107256;1273;24228;-79
2023/07/31 03:19:17;;;;;;;5.90;3.90;;;;;;;15.25;100.00;97574.73;107211;1273;22490;-79
2023/07/31 03:21:45;;;;;;;5.50;3.90;;;;;;;15.28;100.00;97577.55;107230;1273;22636;-79
2023/07/31 03:24:13;;;;;;;6.20;3.70;;;;;;;15.29;100.00;97575.58;107257;1273;22522;-79
2023/07/31 03:26:41;;;;;;;4.60;3.90;;;;;;;15.32;100.00;97577.05;107239;1273;22524;-79
2023/07/31 03:29:09;;;;;;;5.60;4.10;;;;;;;15.33;100.00;97574.45;107253;1273;23515;-79
2023/07/31 03:31:37;;;;;;;6.10;3.80;;;;;;;15.35;100.00;97576.63;107225;1273;25342;-79
2023/07/31 03:34:05;;;;;;;6.20;3.70;;;;;;;15.37;100.00;97584.92;107260;1273;22534;-79
2023/07/31 03:36:33;;;;;;;7.60;4.00;;;;;;;15.38;100.00;97582.63;107230;1273;22729;-79
2023/07/31 03:39:03;;;;;;;5.80;3.80;;;;;;;15.36;100.00;97588.14;107223;1273;25310;-79
2023/07/31 03:41:31;;;;;;;7.10;4.10;;;;;;;15.35;100.00;97590.34;107264;1273;25681;-79
2023/07/31 03:43:59;;;;;;;8.10;4.30;;;;;;;15.34;100.00;97589.52;107244;1273;25640;-79
2023/07/31 03:46:27;;;;;;;8.40;4.00;;;;;;;15.35;100.00;97590.42;107264;1273;24202;-78
2023/07/31 03:48:55;;;;;;;5.80;4.30;;;;;;;15.35;100.00;97592.93;107213;1273;22731;-78
2023/07/31 03:51:23;;;;;;;8.60;4.70;;;;;;;15.37;100.00;97596.46;106930;1273;22631;-78
2023/07/31 03:53:51;;;;;;;8.60;4.90;;;;;;;15.38;100.00;97593.48;107221;1273;22521;-79
2023/07/31 03:56:19;;;;;;;11.30;4.70;;;;;;;15.41;100.00;97597.22;107288;1273;24381;-78
2023/07/31 03:58:47;;;;;;;6.30;4.60;;;;;;;15.44;100.00;97594.38;107258;1273;22533;-80
2023/07/31 04:01:15;;;;;;;6.20;4.60;;;;;;;15.48;100.00;97592.54;107345;1273;24361;-78
2023/07/31 04:03:43;;;;;;;5.60;4.70;;;;;;;15.54;100.00;97595.64;107216;1273;22534;-79
2023/07/31 04:06:11;;;;;;;6.10;4.00;;;;;;;15.62;100.00;97592.79;107261;1273;22522;-78
2023/07/31 04:08:39;;;;;;;7.40;4.60;;;;;;;15.67;100.00;97591.79;107236;1273;22578;-78
2023/07/31 04:11:07;;;;;;;7.00;4.30;;;;;;;15.70;100.00;97598.73;107280;1273;24367;-78
2023/07/31 04:13:35;;;;;;;8.40;4.40;;;;;;;15.68;100.00;97604.00;107184;1273;25222;-79
2023/07/31 04:16:03;;;;;;;7.00;4.20;;;;;;;15.69;100.00;97602.89;107250;1274;24395;-78
2023/07/31 04:18:32;;;;;;;5.30;3.80;;;;;;;15.70;100.00;97605.17;107232;1274;22644;-79
2023/07/31 04:21:01;;;;;;;6.10;3.60;;;;;;;15.72;100.00;97604.01;107265;1274;24072;-79
2023/07/31 04:23:29;;;;;;;7.00;3.60;;;;;;;15.71;100.00;97598.45;107268;1273;23285;-78
2023/07/31 04:25:57;;;;;;;5.90;4.10;;;;;;;15.71;100.00;97604.17;107228;1273;25402;-78
2023/07/31 04:28:25;;;;;;;9.60;3.70;;;;;;;15.69;100.00;97605.06;107162;1259;22577;-78
2023/07/31 04:30:54;;;;;;;13.20;3.70;;;;;;;15.72;100.00;97610.30;107202;1273;25262;-78
2023/07/31 04:33:22;;;;;;;6.40;3.30;;;;;;;15.74;100.00;97612.73;107055;1273;23317;-78
2023/07/31 04:35:52;;;;;;;8.10;3.60;;;;;;;15.71;100.00;97610.88;107294;1273;24216;-79
2023/07/31 04:38:21;;;;;;;6.40;3.60;;;;;;;15.73;100.00;97609.52;107011;1273;22610;-78
2023/07/31 04:40:49;;;;;;;7.90;3.80;;;;;;;15.76;100.00;97614.59;107302;1273;25505;-78
2023/07/31 04:43:17;;;;;;;5.00;3.30;;;;;;;15.77;100.00;97619.04;107313;1273;26573;-78
2023/07/31 04:45:50;;;;;;;6.40;3.90;;;;;;;15.78;100.00;97614.90;107285;1273;23042;-78
2023/07/31 04:48:18;;;;;;;7.00;4.20;;;;;;;15.81;100.00;97614.01;107315;1273;22550;-78
2023/07/31 04:50:46;;;;;;;7.10;3.70;;;;;;;15.89;100.00;97609.81;107293;1273;25613;-78
2023/07/31 04:53:14;;;;;;;7.60;3.80;;;;;;;15.96;100.00;97607.99;107289;1273;23919;-78
2023/07/31 04:55:42;;;;;;;7.70;4.20;;;;;;;16.00;100.00;97609.66;107315;1273;22586;-78
2023/07/31 04:58:10;;;;;;;4.30;3.30;;;;;;;16.05;100.00;97612.89;107014;1255;22819;-80
2023/07/31 05:00:37;;;;;;;4.50;2.90;;;;;;;16.08;100.00;97609.39;107014;1273;25517;-79
2023/07/31 05:03:06;;;;;;;6.30;3.80;;;;;;;16.14;100.00;97617.98;107328;1273;24246;-79
2023/07/31 05:05:35;;;;;;;5.20;2.90;;;;;;;16.19;100.00;97619.51;107296;1273;24431;-79
2023/07/31 05:08:03;;;;;;;6.40;3.30;;;;;;;16.19;100.00;97621.60;107245;1273;24078;-80
2023/07/31 05:10:31;;;;;;;5.20;3.70;;;;;;;16.19;100.00;97618.09;107155;1274;25449;-79
2023/07/31 05:12:59;;;;;;;5.00;3.30;;;;;;;16.21;100.00;97619.13;107016;1274;24364;-81
2023/07/31 05:15:28;;;;;;;8.40;3.50;;;;;;;16.26;100.00;97622.73;107237;1274;25410;-80
2023/07/31 05:17:56;;;;;;;5.10;3.30;;;;;;;16.27;100.00;97621.45;107271;1274;26688;-79
2023/07/31 05:20:24;;;;;;;5.50;3.60;;;;;;;16.36;100.00;97632.61;107197;1274;23406;-79
2023/07/31 05:22:52;;;;;;;4.80;3.40;;;;;;;16.41;100.00;97631.27;107225;1274;25788;-80
2023/07/31 05:25:20;;;;;;;7.40;3.50;;;;;;;16.43;100.00;97639.23;107239;1274;22630;-79
2023/07/31 05:27:48;;;;;;;7.80;4.00;;;;;;;16.46;100.00;97640.89;107227;1274;23032;-79
2023/07/31 05:30:16;;;;;;;5.00;3.30;;;;;;;16.45;100.00;97643.20;106929;1274;22525;-78
2023/07/31 05:32:44;;;;;;;5.60;3.50;;;;;;;16.40;100.00;97645.30;107272;1274;22785;-78
2023/07/31 05:35:12;;;;;;;6.00;3.60;;;;;;;16.36;99.87;97643.79;106959;1274;22527;-78
2023/07/31 05:37:40;;;;;;;6.90;3.10;;;;;;;16.36;100.00;97646.76;106959;1259;23023;-78
2023/07/31 05:40:09;;;;;;;5.30;3.40;;;;;;;16.40;99.84;97648.33;106919;1274;25459;-79
2023/07/31 05:42:38;;;;;;;6.50;3.40;;;;;;;16.46;100.00;97641.90;106930;1274;22524;-79
2023/07/31 05:45:07;;;;;;;5.90;3.30;;;;;;;16.56;99.90;97635.52;107245;1274;22582;-79
2023/07/31 05:47:35;;;;;;;6.00;3.40;;;;;;;16.69;99.92;97636.84;107283;1274;24377;-77
2023/07/31 05:50:03;;;;;;;5.60;3.60;;;;;;;16.91;100.00;97634.05;107188;1274;22521;-78
2023/07/31 05:52:31;;;;;;;4.80;3.50;;;;;;;17.12;99.82;97635.87;107201;1274;25309;-78
2023/07/31 05:54:59;;;;;;;6.30;2.90;;;;;;;17.31;99.67;97634.73;107165;1274;24239;-78
2023/07/31 05:57:27;;;;;;;8.60;3.20;;;;;;;17.50;99.42;97633.83;107253;1274;22845;-78
2023/07/31 05:59:55;;;;;;;5.60;3.20;;;;;;;17.70;99.14;97635.89;107203;1274;22624;-78
2023/07/31 06:02:23;;;;;;;7.10;3.10;;;;;;;17.79;97.31;97639.46;107197;1274;22633;-78
2023/07/31 06:04:51;;;;;;;7.10;3.40;;;;;;;17.83;96.23;97644.93;107197;1274;22655;-78
2023/07/31 06:07:19;;;;;;;6.30;3.10;;;;;;;17.80;95.39;97646.20;107194;1274;22641;-78
2023/07/31 06:09:48;;;;;;;8.40;3.50;;;;;;;17.78;95.41;97647.79;106882;1274;25323;-78
2023/07/31 06:12:18;;;;;;;7.80;3.40;;;;;;;17.77;94.59;97653.66;106920;1274;25406;-78
2023/07/31 06:14:46;;;;;;;8.50;3.40;;;;;;;17.73;92.71;97651.36;106992;1273;22532;-78
2023/07/31 06:17:14;;;;;;;5.50;3.30;;;;;;;17.63;92.13;97656.50;106973;1273;22644;-78
2023/07/31 06:19:42;;;;;;;5.30;3.60;;;;;;;17.53;91.80;97655.40;106966;1273;25377;-78
2023/07/31 06:22:10;;;;;;;6.80;3.60;;;;;;;17.47;91.21;97657.18;107324;1273;22532;-78
2023/07/31 06:24:38;;;;;;;6.70;3.30;;;;;;;17.42;91.32;97656.48;107275;1273;22537;-78
2023/07/31 06:27:06;;;;;;;8.40;3.90;;;;;;;17.45;91.69;97655.41;106988;1273;22530;-78
2023/07/31 06:29:34;;;;;;;6.30;3.00;;;;;;;17.42;91.06;97653.88;106953;1273;25528;-78
2023/07/31 06:32:03;;;;;;;6.50;3.40;;;;;;;17.38;90.95;97658.03;107304;1273;22627;-78
2023/07/31 06:34:31;;;;;;;8.60;4.00;;;;;;;17.41;90.71;97653.29;106948;1273;22644;-78
2023/07/31 06:36:59;;;;;;;6.80;3.30;;;;;;;17.44;90.95;97649.86;107239;1273;22527;-78
2023/07/31 06:39:27;;;;;;;10.00;3.90;;;;;;;17.53;90.87;97650.95;107283;1273;22622;-78
2023/07/31 06:41:55;;;;;;;8.10;3.80;;;;;;;17.52;90.68;97651.92;106971;1273;22521;-78
2023/07/31 06:44:23;;;;;;;7.60;4.50;;;;;;;17.53;91.47;97647.77;106983;1273;24365;-79
2023/07/31 06:46:50;;;;;;;7.30;5.10;;;;;;;17.58;90.46;97646.63;107006;1273;24238;-78
2023/07/31 06:49:18;;;;;;;8.40;4.40;;;;;;;17.62;90.37;97646.42;107283;1273;22656;-78
2023/07/31 06:51:46;;;;;;;8.90;4.40;;;;;;;17.70;90.57;97652.00;107261;1273;23906;-78
2023/07/31 06:54:14;;;;;;;10.70;5.00;;;;;;;17.76;90.54;97653.16;107297;1273;25335;-78
2023/07/31 06:56:42;;;;;;;11.90;4.90;;;;;;;17.84;91.23;97654.08;106985;1273;22525;-78
2023/07/31 06:59:11;;;;;;;7.00;4.60;;;;;;;17.91;90.82;97659.16;107276;1273;24380;-79
2023/07/31 07:01:39;;;;;;;9.30;5.60;;;;;;;17.95;90.37;97662.91;107029;1273;22566;-78
2023/07/31 07:04:07;;;;;;;7.50;4.60;;;;;;;17.95;90.38;97657.45;106986;1273;22627;-79
2023/07/31 07:06:35;;;;;;;7.80;5.00;;;;;;;17.99;90.51;97660.21;107013;1273;22587;-78
2023/07/31 07:09:04;;;;;;;7.80;5.30;;;;;;;18.11;90.28;97663.31;107277;1273;22681;-78
2023/07/31 07:11:32;;;;;;;8.40;4.60;;;;;;;18.23;90.13;97658.88;107001;1273;22531;-78
2023/07/31 07:14:00;;;;;;;7.20;4.10;;;;;;;18.37;89.41;97662.80;107241;1273;24217;-78
2023/07/31 07:16:28;;;;;;;8.40;4.60;;;;;;;18.53;90.29;97661.36;107264;1256;22552;-79
2023/07/31 07:18:57;;;;;;;9.10;4.20;;;;;;;18.68;88.85;97667.04;107283;1273;24227;-79
2023/07/31 07:21:31;;;;;;;8.20;4.50;;;;;;;18.64;89.05;97662.60;106982;1273;22613;-79
2023/07/31 07:23:59;;;;;;;6.10;4.30;;;;;;;18.54;88.73;97661.30;106999;1273;22535;-78
2023/07/31 07:26:27;;;;;;;11.20;4.40;;;;;;;18.60;89.69;97659.79;107275;1273;25224;-79
2023/07/31 07:28:55;;;;;;;10.00;4.60;;;;;;;18.74;89.08;97657.91;107244;1273;22521;-79
2023/07/31 07:31:26;;;;;;;6.60;4.20;;;;;;;18.76;87.12;97662.10;107341;1273;22634;-78
2023/07/31 07:33:54;;;;;;;9.50;4.40;;;;;;;18.77;88.36;97661.34;107307;1273;22547;-79
2023/07/31 07:36:22;;;;;;;8.00;4.20;;;;;;;18.90;87.62;97664.88;107379;1273;22797;-79
2023/07/31 07:38:50;;;;;;;8.80;4.20;;;;;;;18.90;85.41;97661.21;107212;1273;25309;-79
2023/07/31 07:41:18;;;;;;;6.30;3.80;;;;;;;18.91;84.69;97666.46;107134;1273;22817;-79
2023/07/31 07:43:46;;;;;;;7.90;4.20;;;;;;;18.91;85.68;97664.61;107162;1273;22871;-79
2023/07/31 07:46:14;;;;;;;8.10;3.90;;;;;;;19.01;85.92;97661.91;107218;1273;22544;-79
2023/07/31 07:48:42;;;;;;;7.70;4.50;;;;;;;19.17;85.50;97664.77;107316;1273;24323;-79
2023/07/31 07:51:10;;;;;;;5.90;3.80;;;;;;;19.22;85.51;97662.33;107503;1273;24193;-79
2023/07/31 07:53:38;;;;;;;10.20;4.20;;;;;;;19.35;85.39;97660.06;107395;1260;22580;-79
2023/07/31 07:56:06;;;;;;;8.80;4.30;;;;;;;19.47;84.19;97666.13;107249;1273;25390;-78
2023/07/31 07:58:34;;;;;;;10.90;4.20;;;;;;;19.56;84.23;97661.14;107218;1273;22577;-78
2023/07/31 08:01:02;;;;;;;6.90;4.00;;;;;;;19.65;83.83;97665.22;107300;1273;25494;-79
2023/07/31 08:03:30;;;;;;;7.10;3.70;;;;;;;19.75;84.56;97658.38;107032;1273;22545;-79
2023/07/31 08:06:01;;;;;;;9.10;4.00;;;;;;;19.96;84.21;97658.10;107294;1273;22565;-79
2023/07/31 08:08:29;;;;;;;9.40;3.40;;;;;;;20.19;84.38;97658.84;107235;1273;23275;-78
2023/07/31 08:10:57;;;;;;;7.10;3.60;;;;;;;20.34;82.87;97662.13;107275;1273;22569;-79
2023/07/31 08:13:25;;;;;;;6.40;3.70;;;;;;;20.23;81.50;97658.44;106973;1273;23068;-79
2023/07/31 08:15:53;;;;;;;9.90;3.60;;;;;;;20.14;80.10;97662.15;107291;1273;22540;-79
2023/07/31 08:18:21;;;;;;;7.20;3.20;;;;;;;20.18;80.85;97660.47;106958;1273;23106;-80
2023/07/31 08:20:49;;;;;;;6.50;3.00;;;;;;;20.35;78.91;97663.79;107209;1273;23026;-80
2023/07/31 08:23:17;;;;;;;6.90;3.60;;;;;;;20.35;76.85;97661.67;107205;1273;22530;-80
2023/07/31 08:25:46;;;;;;;5.60;3.40;;;;;;;20.43;78.39;97668.04;107217;1273;24275;-79
2023/07/31 08:28:14;;;;;;;6.60;3.10;;;;;;;20.45;74.96;97667.59;107307;1273;25432;-80
2023/07/31 08:30:42;;;;;;;8.90;3.10;;;;;;;20.20;72.68;97669.66;107188;1273;22631;-80
2023/07/31 08:33:10;;;;;;;8.60;3.20;;;;;;;20.02;72.36;97666.02;107240;1273;22558;-80
2023/07/31 08:35:38;;;;;;;6.10;3.20;;;;;;;20.05;73.03;97666.15;107199;1273;24351;-78
2023/07/31 08:38:07;;;;;;;6.70;3.30;;;;;;;20.16;72.97;97667.86;106960;1273;24079;-79
2023/07/31 08:40:38;;;;;;;6.60;3.30;;;;;;;20.30;73.12;97668.85;107302;1273;22653;-81
2023/07/31 08:43:07;;;;;;;6.40;3.80;;;;;;;20.28;72.17;97672.82;107274;1273;22527;-79
2023/07/31 08:45:35;;;;;;;7.70;3.40;;;;;;;20.32;70.60;97672.73;107056;1273;22519;-78
2023/07/31 08:48:04;;;;;;;5.50;3.40;;;;;;;20.35;70.22;97670.66;107033;1273;25469;-79
2023/07/31 08:50:32;;;;;;;7.50;3.40;;;;;;;20.46;71.76;97664.09;106929;1273;25379;-79
2023/07/31 08:53:00;;;;;;;6.80;3.30;;;;;;;20.65;70.58;97669.86;106943;1273;23321;-79
2023/07/31 08:55:29;;;;;;;4.50;2.50;;;;;;;20.61;68.65;97669.09;106909;1273;22641;-78
2023/07/31 08:57:58;;;;;;;6.60;3.10;;;;;;;20.51;67.42;97660.80;106985;1273;25288;-79
2023/07/31 09:00:27;;;;;;;5.50;2.90;;;;;;;20.54;67.52;97666.11;107011;1273;23340;-79
2023/07/31 09:03:21;;;;;;;6.70;2.90;;;;;;;20.53;66.37;97666.32;107319;1273;22577;-80
2023/07/31 09:05:50;;;;;;;6.30;3.10;;;;;;;20.59;67.88;97656.16;106937;1273;22533;-80
2023/07/31 09:08:20;;;;;;;5.90;2.60;;;;;;;20.78;65.60;97659.23;106987;1273;23003;-80
2023/07/31 09:10:52;;;;;;;8.00;3.00;;;;;;;20.91;64.20;97662.84;107230;1273;25453;-80
2023/07/31 09:13:19;;;;;;;8.50;3.20;;;;;;;20.96;64.11;97661.95;107069;1273;22652;-79
2023/07/31 09:15:47;;;;;;;6.10;2.70;;;;;;;21.04;65.70;97659.63;107214;1273;24191;-80
2023/07/31 09:18:19;;;;;;;7.50;2.70;;;;;;;21.15;64.69;97664.14;107236;1273;24237;-80
2023/07/31 09:21:04;;;;;;;5.60;3.00;;;;;;;21.07;63.34;97657.55;107228;1273;22534;-80
2023/07/31 09:23:45;;;;;;;6.10;2.90;;;;;;;20.94;63.50;97661.61;107267;1273;22552;-79
2023/07/31 09:26:36;;;;;;;7.70;2.70;;;;;;;20.86;64.37;97665.77;107210;1273;24347;-80
2023/07/31 09:29:07;;;;;;;5.70;3.00;;;;;;;21.01;63.27;97661.63;107016;1273;25683;-79
2023/07/31 09:31:43;;;;;;;6.00;3.10;;;;;;;21.23;63.87;97657.19;107025;1273;22573;-79
2023/07/31 09:34:13;;;;;;;6.10;2.90;;;;;;;21.54;64.71;97648.06;107012;1273;22791;-80
2023/07/31 09:36:49;;;;;;;11.70;3.50;;;;;;;21.70;62.63;97654.23;107349;1263;23041;-79
2023/07/31 09:39:19;;;;;;;9.70;3.60;;;;;;;21.61;62.07;97652.19;106949;1273;25463;-79
2023/07/31 09:41:54;;;;;;;12.10;3.60;;;;;;;21.56;62.65;97648.38;107279;1273;22561;-81
2023/07/31 09:44:37;;;;;;;11.20;4.30;;;;;;;21.64;62.02;97651.27;107096;1273;22526;-80
2023/07/31 09:47:05;;;;;;;7.10;3.60;;;;;;;21.69;61.41;97648.19;107303;1273;24819;-79
2023/07/31 09:49:33;;;;;;;9.50;3.20;;;;;;;21.81;62.12;97647.74;107026;1273;22942;-79
2023/07/31 09:52:01;;;;;;;5.10;2.80;;;;;;;22.03;63.11;97638.83;106942;1273;25603;-79
2023/07/31 09:54:29;;;;;;;7.80;2.90;;;;;;;22.25;62.24;97633.36;106920;1273;22546;-80
2023/07/31 09:57:00;;;;;;;7.30;3.30;;;;;;;22.44;61.57;97642.27;107257;1273;22622;-79
2023/07/31 09:59:28;;;;;;;6.40;3.10;;;;;;;22.60;61.20;97636.55;107299;1273;22574;-80
2023/07/31 10:01:56;;;;;;;6.90;3.00;;;;;;;22.47;60.39;97632.95;107269;1273;22512;-79
2023/07/31 10:04:29;;;;;;;8.90;3.40;;;;;;;22.58;60.48;97621.08;107269;1273;22677;-80
2023/07/31 10:07:01;;;;;;;22.70;3.80;;;;;;;22.67;59.15;97627.78;107316;1273;22653;-79
2023/07/31 10:09:31;;;;;;;5.90;3.00;;;;;;;22.37;59.68;97622.53;107050;1273;24182;-80
2023/07/31 10:12:09;;;;;;;7.30;3.10;;;;;;;22.15;59.27;97619.33;107018;1273;24354;-81
2023/07/31 10:14:38;;;;;;;7.30;2.70;;;;;;;21.85;57.91;97620.27;107196;1273;22781;-80
2023/07/31 10:17:08;;;;;;;5.00;2.50;;;;;;;21.68;57.22;97621.46;107472;1273;22569;-79
2023/07/31 10:19:37;;;;;;;4.40;2.50;;;;;;;21.65;56.05;97615.89;107013;1273;24417;-79
2023/07/31 10:22:05;;;;;;;6.40;2.90;;;;;;;21.84;57.80;97616.98;106953;1273;24238;-79
2023/07/31 10:24:34;;;;;;;5.90;2.90;;;;;;;22.15;57.27;97614.63;106962;1273;22615;-79
2023/07/31 10:27:03;;;;;;;5.40;2.80;;;;;;;22.13;56.32;97617.11;107037;1273;23744;-79
2023/07/31 10:29:32;;;;;;;5.90;2.80;;;;;;;21.90;56.90;97623.77;106987;1273;22549;-79
2023/07/31 10:32:01;;;;;;;5.60;2.90;;;;;;;21.70;56.90;97621.80;106983;1273;24361;-79
2023/07/31 10:34:29;;;;;;;6.90;4.80;;;;;;;21.69;57.75;97616.70;107298;1273;22542;-79
2023/07/31 10:37:22;;;;;;;9.80;5.80;;;;;;;21.63;57.98;97615.63;107026;1273;24199;-80
2023/07/31 10:39:58;;;;;;;8.30;2.90;;;;;;;21.68;57.99;97611.27;107248;1273;22548;-80
2023/07/31 10:42:38;;;;;;;7.60;3.50;;;;;;;21.76;57.80;97609.63;107306;1273;22639;-80
2023/07/31 10:45:09;;;;;;;9.30;5.10;;;;;;;22.09;57.43;97602.66;107077;1273;24340;-78
2023/07/31 10:47:39;;;;;;;8.00;3.90;;;;;;;22.30;55.33;97605.79;107119;1273;22647;-79
2023/07/31 10:50:23;;;;;;;5.50;2.80;;;;;;;22.29;55.61;97605.71;107046;1273;24049;-79
2023/07/31 10:52:53;;;;;;;;;;;;;;;22.34;56.57;97592.33;107068;1273;24229;-80
2023/07/31 10:55:21;;;;;;;6.80;3.60;;;;;;;22.51;56.92;97590.77;106953;1273;24343;-79
2023/07/31 10:57:49;;;;;;;5.50;2.90;;;;;;;22.76;57.25;97591.27;106992;1273;22634;-79
2023/07/31 11:00:26;;;;;;;12.80;2.60;;;;;;;22.91;56.10;97596.02;107003;1273;22638;-79
2023/07/31 11:03:06;;;;;;;4.80;2.80;;;;;;;22.76;55.71;97593.70;107048;1273;24072;-79
2023/07/31 11:05:47;;;;;;;7.00;3.00;;;;;;;22.55;55.78;97593.14;106978;1273;22528;-80
2023/07/31 11:08:24;;;;;;;10.40;3.30;;;;;;;22.41;55.92;97597.08;106981;1273;22546;-79
2023/07/31 11:11:01;;;;;;;6.40;3.80;;;;;;;22.24;55.26;97596.81;106994;1273;23014;-80
2023/07/31 11:13:32;;;;;;;8.90;3.50;;;;;;;22.05;55.83;97590.40;107267;1273;24465;-80
2023/07/31 11:16:00;;;;;;;6.20;3.10;;;;;;;22.04;55.48;97585.92;107367;1273;24248;-80
2023/07/31 11:18:28;;;;;;;5.80;2.50;;;;;;;22.15;55.33;97587.10;107365;1273;22643;-80
2023/07/31 11:20:57;;;;;;;6.50;3.00;;;;;;;22.12;55.92;97580.79;107000;1273;22534;-80
2023/07/31 11:23:25;;;;;;;4.90;2.90;;;;;;;22.10;55.79;97574.67;106904;1273;25205;-79
2023/07/31 11:25:59;;;;;;;6.50;3.20;;;;;;;22.30;55.88;97568.77;107003;1273;25696;-80
2023/07/31 11:28:33;;;;;;;6.60;2.90;;;;;;;22.51;56.12;97565.19;107272;1273;22658;-80
2023/07/31 11:31:02;;;;;;;9.60;3.00;;;;;;;22.55;54.69;97568.73;107230;1268;25419;-80
2023/07/31 11:33:31;;;;;;;6.90;3.30;;;;;;;22.70;54.95;97571.55;106977;1273;25355;-80